createdAt,value
2018-07-12T00:02:00.327Z,13.80
2018-07-12T00:04:27.744Z,13.70
2018-07-12T00:06:55.313Z,13.60
2018-07-12T00:09:22.779Z,13.50
2018-07-12T00:11:50.228Z,13.40
2018-07-12T00:14:17.735Z,13.30
2018-07-12T00:19:12.852Z,13.20
2018-07-12T00:21:40.283Z,13.20
2018-07-12T00:24:07.739Z,13.20
2018-07-12T00:26:35.201Z,13.20
2018-07-12T00:29:02.641Z,13.20
2018-07-12T00:31:30.126Z,13.20
2018-07-12T00:33:57.590Z,13.20
2018-07-12T00:36:25.054Z,13.20
2018-07-12T00:38:52.493Z,13.20
2018-07-12T00:41:19.930Z,13.20
2018-07-12T00:43:47.399Z,13.20
2018-07-12T00:46:14.900Z,13.20
2018-07-12T00:48:42.363Z,13.20
2018-07-12T00:51:09.824Z,13.20
2018-07-12T00:53:37.282Z,13.30
2018-07-12T00:56:04.740Z,13.30
2018-07-12T00:58:32.170Z,13.30
2018-07-12T01:00:59.615Z,13.30
2018-07-12T01:03:27.076Z,13.30
2018-07-12T01:05:54.517Z,13.40
2018-07-12T01:08:21.978Z,13.40
2018-07-12T01:10:49.407Z,13.40
2018-07-12T01:13:16.820Z,13.40
2018-07-12T01:15:44.289Z,13.40
2018-07-12T01:18:11.714Z,13.40
2018-07-12T01:20:39.179Z,13.40
2018-07-12T01:25:34.294Z,13.40
2018-07-12T01:28:01.747Z,13.50
2018-07-12T01:30:29.214Z,13.50
2018-07-12T01:32:56.681Z,13.50
2018-07-12T01:35:24.104Z,13.60
2018-07-12T01:37:51.572Z,13.50
2018-07-12T01:40:19.014Z,13.50
2018-07-12T01:42:46.435Z,13.50
2018-07-12T01:45:13.906Z,13.50
2018-07-12T01:47:41.329Z,13.50
2018-07-12T01:50:08.768Z,13.60
2018-07-12T01:52:36.229Z,13.60
2018-07-12T01:55:03.642Z,13.60
2018-07-12T01:57:31.113Z,13.60
2018-07-12T01:59:58.535Z,13.60
2018-07-12T02:02:25.962Z,13.50
2018-07-12T02:07:27.487Z,13.50
2018-07-12T02:09:54.941Z,13.50
2018-07-12T02:12:22.449Z,13.50
2018-07-12T02:14:49.894Z,13.50
2018-07-12T02:17:17.317Z,13.60
2018-07-12T02:19:44.759Z,13.50
2018-07-12T02:22:12.203Z,13.60
2018-07-12T02:24:39.641Z,13.60
2018-07-12T02:27:07.085Z,13.60
2018-07-12T02:29:34.504Z,13.60
2018-07-12T02:32:01.953Z,13.60
2018-07-12T02:34:29.374Z,13.60
2018-07-12T02:36:56.799Z,13.60
2018-07-12T02:39:24.267Z,13.60
2018-07-12T02:41:51.707Z,13.60
2018-07-12T02:44:19.165Z,13.60
2018-07-12T02:46:46.596Z,13.50
2018-07-12T02:49:14.268Z,13.50
2018-07-12T02:51:41.703Z,13.50
2018-07-12T02:54:09.118Z,13.50
2018-07-12T02:56:36.569Z,13.50
2018-07-12T02:59:04.120Z,13.50
2018-07-12T03:01:31.600Z,13.50
2018-07-12T03:03:59.096Z,13.50
2018-07-12T03:06:26.707Z,13.50
2018-07-12T03:08:54.137Z,13.40
2018-07-12T03:11:21.563Z,13.40
2018-07-12T03:13:49.034Z,13.40
2018-07-12T03:16:16.464Z,13.40
2018-07-12T03:18:43.910Z,13.40
2018-07-12T03:21:11.331Z,13.40
2018-07-12T03:23:38.793Z,13.50
2018-07-12T03:26:06.231Z,13.50
2018-07-12T03:28:33.666Z,13.50
2018-07-12T03:31:01.134Z,13.40
2018-07-12T03:33:28.549Z,13.50
2018-07-12T03:35:55.999Z,13.40
2018-07-12T03:38:23.446Z,13.50
2018-07-12T03:40:51.335Z,13.40
2018-07-12T03:43:18.749Z,13.50
2018-07-12T03:45:46.201Z,13.50
2018-07-12T03:48:13.728Z,13.50
2018-07-12T03:50:41.145Z,13.50
2018-07-12T03:53:08.625Z,13.50
2018-07-12T03:55:36.073Z,13.60
2018-07-12T03:58:03.536Z,13.60
2018-07-12T04:00:31.002Z,13.60
2018-07-12T04:02:58.414Z,13.60
2018-07-12T04:05:25.857Z,13.60
2018-07-12T04:07:53.282Z,13.70
2018-07-12T04:10:20.729Z,13.70
2018-07-12T04:12:48.201Z,13.60
2018-07-12T04:15:15.638Z,13.70
2018-07-12T04:17:43.090Z,13.70
2018-07-12T04:20:10.527Z,13.70
2018-07-12T04:22:37.996Z,13.70
2018-07-12T04:25:05.578Z,13.80
2018-07-12T04:27:33.002Z,13.80
2018-07-12T04:30:00.916Z,13.80
2018-07-12T04:32:28.341Z,13.80
2018-07-12T04:34:55.799Z,13.80
2018-07-12T04:37:23.237Z,13.80
2018-07-12T04:39:50.646Z,13.90
2018-07-12T04:42:18.085Z,13.90
2018-07-12T04:44:45.508Z,13.90
2018-07-12T04:47:12.961Z,14.00
2018-07-12T04:49:40.402Z,14.10
2018-07-12T04:52:07.835Z,14.20
2018-07-12T04:54:35.306Z,14.20
2018-07-12T04:57:02.745Z,14.30
2018-07-12T04:59:30.223Z,14.30
2018-07-12T05:01:57.643Z,14.30
2018-07-12T05:04:25.072Z,14.40
2018-07-12T05:06:52.717Z,14.40
2018-07-12T05:09:20.153Z,14.50
2018-07-12T05:11:47.889Z,14.60
2018-07-12T05:14:15.637Z,14.70
2018-07-12T05:16:43.317Z,14.70
2018-07-12T05:19:11.028Z,14.80
2018-07-12T05:21:38.462Z,14.80
2018-07-12T05:24:05.910Z,14.90
2018-07-12T05:26:33.337Z,14.90
2018-07-12T05:29:00.765Z,14.90
2018-07-12T05:31:28.192Z,14.90
2018-07-12T05:33:55.618Z,14.80
2018-07-12T05:37:04.069Z,14.90
2018-07-12T05:39:32.713Z,14.90
2018-07-12T05:42:01.394Z,15.00
2018-07-12T05:44:30.523Z,15.10
2018-07-12T05:46:59.651Z,15.10
2018-07-12T05:49:28.881Z,15.30
2018-07-12T05:54:26.712Z,15.50
2018-07-12T05:56:55.887Z,15.50
2018-07-12T05:59:25.269Z,15.50
2018-07-12T06:02:05.146Z,15.50
2018-07-12T06:04:33.830Z,15.50
2018-07-12T06:07:02.508Z,15.50
2018-07-12T06:09:31.183Z,15.50
2018-07-12T06:11:59.896Z,15.50
2018-07-12T06:14:28.576Z,15.50
2018-07-12T06:16:57.296Z,15.50
2018-07-12T06:19:25.937Z,15.50
2018-07-12T06:21:54.613Z,15.50
2018-07-12T06:24:24.194Z,15.50
2018-07-12T06:26:52.852Z,15.50
2018-07-12T06:29:21.586Z,15.60
2018-07-12T06:31:50.261Z,15.70
2018-07-12T06:34:18.948Z,15.80
2018-07-12T06:36:47.604Z,15.80
2018-07-12T06:39:16.318Z,15.80
2018-07-12T06:41:45.026Z,15.80
2018-07-12T06:44:13.751Z,15.80
2018-07-12T06:46:42.446Z,15.80
2018-07-12T06:49:11.100Z,15.90
2018-07-12T06:51:39.859Z,15.80
2018-07-12T06:54:08.528Z,15.80
2018-07-12T06:56:37.224Z,15.70
2018-07-12T06:59:06.025Z,15.80
2018-07-12T07:01:34.716Z,15.90
2018-07-12T07:04:03.454Z,15.90
2018-07-12T07:06:32.134Z,16.00
2018-07-12T07:09:00.838Z,16.10
2018-07-12T07:11:29.476Z,16.30
2018-07-12T07:13:58.172Z,16.60
2018-07-12T07:16:27.037Z,16.80
2018-07-12T07:18:55.750Z,17.10
2018-07-12T07:21:24.415Z,17.20
2018-07-12T07:23:53.125Z,17.40
2018-07-12T07:26:21.865Z,17.40
2018-07-12T07:28:50.514Z,17.30
2018-07-12T07:31:19.193Z,17.10
2018-07-12T07:33:47.864Z,16.90
2018-07-12T07:36:16.601Z,16.80
2018-07-12T07:38:45.772Z,16.80
2018-07-12T07:41:14.678Z,16.70
2018-07-12T07:43:43.549Z,16.60
2018-07-12T07:46:12.249Z,16.50
2018-07-12T07:48:40.910Z,16.70
2018-07-12T07:51:10.033Z,16.80
2018-07-12T07:53:38.901Z,16.90
2018-07-12T07:56:07.768Z,17.10
2018-07-12T07:58:36.455Z,17.30
2018-07-12T08:01:05.125Z,17.60
2018-07-12T08:03:33.829Z,17.70
2018-07-12T08:06:02.511Z,17.80
2018-07-12T08:08:31.181Z,17.90
2018-07-12T08:10:59.879Z,17.80
2018-07-12T08:13:28.557Z,17.90
2018-07-12T08:15:57.220Z,17.90
2018-07-12T08:18:34.706Z,17.80
2018-07-12T08:21:03.742Z,17.90
2018-07-12T08:23:32.443Z,17.80
2018-07-12T08:26:01.124Z,17.90
2018-07-12T08:28:30.474Z,17.90
2018-07-12T08:30:59.215Z,18.10
2018-07-12T08:33:27.968Z,18.30
2018-07-12T08:35:56.631Z,18.50
2018-07-12T08:38:25.351Z,18.50
2018-07-12T08:40:54.131Z,18.60
2018-07-12T08:43:23.806Z,18.60
2018-07-12T08:45:52.514Z,18.60
2018-07-12T08:48:21.231Z,18.70
2018-07-12T08:50:49.950Z,18.80
2018-07-12T08:53:18.625Z,18.90
2018-07-12T08:55:47.331Z,18.80
2018-07-12T08:58:15.994Z,18.80
2018-07-12T09:00:44.678Z,19.00
2018-07-12T09:03:13.369Z,19.20
2018-07-12T09:05:42.065Z,19.30
2018-07-12T09:08:10.782Z,19.40
2018-07-12T09:10:39.456Z,19.60
2018-07-12T09:13:08.186Z,19.60
2018-07-12T09:15:36.857Z,19.70
2018-07-12T09:18:05.598Z,19.70
2018-07-12T09:20:34.248Z,19.90
2018-07-12T09:23:02.943Z,20.10
2018-07-12T09:25:31.672Z,20.20
2018-07-12T09:28:00.322Z,20.20
2018-07-12T09:30:29.006Z,20.10
2018-07-12T09:32:57.694Z,20.10
2018-07-12T09:35:26.380Z,20.10
2018-07-12T09:37:55.100Z,20.10
2018-07-12T09:40:23.798Z,20.00
2018-07-12T09:42:52.535Z,19.80
2018-07-12T09:45:21.215Z,19.70
2018-07-12T09:47:49.918Z,19.70
2018-07-12T09:50:18.585Z,19.80
2018-07-12T09:52:47.299Z,19.90
2018-07-12T09:55:15.985Z,19.90
2018-07-12T09:57:55.761Z,20.20
2018-07-12T10:02:38.497Z,20.50
2018-07-12T10:06:13.933Z,20.70
2018-07-12T10:08:47.861Z,20.70
2018-07-12T10:11:21.991Z,20.80
2018-07-12T10:14:59.630Z,20.70
2018-07-12T10:17:33.550Z,20.70
2018-07-12T10:20:03.802Z,20.10
2018-07-12T10:22:32.526Z,20.10
2018-07-12T10:25:01.225Z,20.00
2018-07-12T10:27:30.010Z,20.10
2018-07-12T10:29:58.754Z,20.20
2018-07-12T10:32:27.440Z,20.50
2018-07-12T10:34:56.134Z,20.60
2018-07-12T10:37:24.807Z,20.90
2018-07-12T10:39:53.451Z,20.90
2018-07-12T10:42:23.673Z,21.10
2018-07-12T10:44:52.904Z,21.30
2018-07-12T10:47:22.073Z,21.30
2018-07-12T10:49:50.785Z,21.70
2018-07-12T10:52:19.462Z,21.60
2018-07-12T10:54:48.165Z,22.00
2018-07-12T10:57:16.880Z,22.30
2018-07-12T10:59:45.555Z,21.90
2018-07-12T11:02:14.272Z,21.70
2018-07-12T11:04:42.963Z,21.90
2018-07-12T11:07:11.680Z,22.20
2018-07-12T11:09:40.388Z,22.30
2018-07-12T11:12:09.110Z,22.40
2018-07-12T11:14:37.791Z,22.80
2018-07-12T11:17:06.497Z,22.90
2018-07-12T11:19:35.218Z,23.00
2018-07-12T11:22:03.916Z,23.30
2018-07-12T11:24:32.618Z,23.60
2018-07-12T11:27:01.292Z,23.60
2018-07-12T11:29:41.021Z,23.40
2018-07-12T11:32:09.736Z,23.40
2018-07-12T11:34:38.425Z,23.60
2018-07-12T11:37:07.204Z,23.80
2018-07-12T11:39:35.836Z,23.90
2018-07-12T11:42:04.557Z,23.60
2018-07-12T11:44:33.275Z,22.90
2018-07-12T11:47:01.969Z,22.80
2018-07-12T11:49:30.792Z,23.00
2018-07-12T11:51:59.493Z,23.40
2018-07-12T11:54:28.191Z,23.70
2018-07-12T11:56:56.880Z,23.90
2018-07-12T11:59:25.611Z,23.80
2018-07-12T12:01:54.413Z,23.60
2018-07-12T12:04:23.041Z,23.20
2018-07-12T12:06:51.769Z,23.40
2018-07-12T12:09:20.555Z,23.70
2018-07-12T12:11:49.221Z,23.70
2018-07-12T12:14:17.916Z,23.40
2018-07-12T12:16:46.581Z,22.90
2018-07-12T12:19:15.256Z,22.90
2018-07-12T12:21:43.948Z,23.40
2018-07-12T12:24:12.621Z,24.30
2018-07-12T12:26:41.283Z,24.80
2018-07-12T12:31:38.310Z,24.60
2018-07-12T12:34:07.039Z,24.70
2018-07-12T12:36:35.755Z,25.10
2018-07-12T12:39:05.840Z,25.30
2018-07-12T12:41:34.708Z,25.70
2018-07-12T12:44:03.461Z,25.00
2018-07-12T12:46:32.109Z,24.90
2018-07-12T12:49:00.806Z,25.10
2018-07-12T12:51:29.460Z,25.50
2018-07-12T12:53:58.199Z,25.70
2018-07-12T12:56:27.025Z,25.60
2018-07-12T12:58:56.705Z,26.20
2018-07-12T13:01:25.493Z,26.80
2018-07-12T13:03:54.165Z,26.30
2018-07-12T13:06:23.382Z,26.20
2018-07-12T13:08:52.084Z,25.90
2018-07-12T13:11:20.812Z,26.20
2018-07-12T13:13:49.612Z,26.60
2018-07-12T13:16:18.277Z,27.10
2018-07-12T13:18:46.938Z,27.80
2018-07-12T13:21:15.618Z,28.10
2018-07-12T13:23:44.344Z,27.50
2018-07-12T13:26:13.042Z,27.80
2018-07-12T13:28:41.793Z,27.70
2018-07-12T13:31:10.504Z,28.30
2018-07-12T13:33:39.173Z,28.30
2018-07-12T13:36:07.900Z,27.90
2018-07-12T13:38:36.590Z,28.00
2018-07-12T13:41:05.310Z,28.00
2018-07-12T13:43:34.022Z,28.20
2018-07-12T13:46:02.741Z,28.40
2018-07-12T13:48:31.433Z,27.40
2018-07-12T13:51:00.115Z,26.40
2018-07-12T13:53:28.782Z,25.90
2018-07-12T13:55:57.455Z,25.70
2018-07-12T13:58:26.185Z,26.40
2018-07-12T14:00:54.873Z,27.00
2018-07-12T14:03:23.828Z,27.50
2018-07-12T14:05:52.521Z,28.10
2018-07-12T14:08:21.212Z,28.10
2018-07-12T14:10:49.934Z,27.90
2018-07-12T14:13:18.628Z,27.20
2018-07-12T14:15:47.318Z,26.50
2018-07-12T14:18:15.970Z,26.20
2018-07-12T14:20:44.689Z,27.10
2018-07-12T14:23:13.366Z,27.90
2018-07-12T14:25:42.057Z,28.90
2018-07-12T14:28:10.733Z,29.50
2018-07-12T14:30:39.409Z,29.30
2018-07-12T14:33:08.148Z,29.40
2018-07-12T14:35:36.872Z,29.30
2018-07-12T14:38:05.601Z,30.10
2018-07-12T14:40:34.282Z,30.40
2018-07-12T14:43:02.930Z,29.50
2018-07-12T14:45:31.611Z,28.80
2018-07-12T14:48:00.296Z,28.20
2018-07-12T14:50:35.471Z,27.50
2018-07-12T14:53:04.128Z,26.80
2018-07-12T14:55:32.861Z,26.50
2018-07-12T14:58:01.540Z,26.20
2018-07-12T15:00:30.223Z,26.60
2018-07-12T15:02:58.989Z,27.30
2018-07-12T15:05:27.625Z,27.20
2018-07-12T15:07:56.435Z,26.90
2018-07-12T15:10:25.109Z,26.60
2018-07-12T15:12:54.220Z,27.40
2018-07-12T15:15:22.865Z,28.10
2018-07-12T15:17:51.509Z,29.40
2018-07-12T15:20:20.227Z,30.00
2018-07-12T15:22:48.868Z,30.80
2018-07-12T15:25:17.569Z,31.00
2018-07-12T15:27:46.229Z,31.20
2018-07-12T15:30:14.962Z,30.90
2018-07-12T15:32:43.618Z,29.80
2018-07-12T15:35:12.283Z,29.10
2018-07-12T15:37:40.984Z,28.90
2018-07-12T15:40:09.672Z,28.90
2018-07-12T15:42:38.348Z,28.60
2018-07-12T15:45:07.015Z,27.70
2018-07-12T15:47:35.873Z,26.90
2018-07-12T15:50:04.608Z,26.60
2018-07-12T15:52:33.307Z,27.10
2018-07-12T15:55:02.010Z,27.80
2018-07-12T15:57:31.010Z,28.30
2018-07-12T15:59:59.721Z,28.00
2018-07-12T16:02:28.353Z,28.40
2018-07-12T16:04:57.038Z,29.00
2018-07-12T16:07:25.670Z,29.60
2018-07-12T16:09:54.303Z,29.90
2018-07-12T16:12:23.002Z,30.80
2018-07-12T16:14:51.650Z,31.00
2018-07-12T16:17:20.323Z,31.80
2018-07-12T16:19:48.936Z,32.20
2018-07-12T16:22:17.621Z,32.20
2018-07-12T16:24:46.285Z,32.10
2018-07-12T16:27:14.932Z,32.40
2018-07-12T16:29:43.614Z,32.70
2018-07-12T16:32:12.276Z,32.40
2018-07-12T16:34:40.957Z,32.30
2018-07-12T16:37:09.703Z,31.50
2018-07-12T16:39:38.470Z,30.70
2018-07-12T16:42:07.159Z,30.90
2018-07-12T16:44:35.841Z,31.10
2018-07-12T16:47:04.734Z,31.50
2018-07-12T16:49:33.846Z,31.50
2018-07-12T16:52:02.525Z,31.60
2018-07-12T16:54:31.253Z,31.70
2018-07-12T16:56:59.852Z,31.50
2018-07-12T16:59:28.514Z,31.70
2018-07-12T17:01:57.189Z,31.30
2018-07-12T17:04:25.868Z,31.00
2018-07-12T17:06:54.545Z,31.30
2018-07-12T17:09:23.589Z,31.00
2018-07-12T17:11:52.632Z,30.00
2018-07-12T17:14:21.286Z,29.70
2018-07-12T17:16:49.946Z,29.80
2018-07-12T17:19:18.589Z,30.30
2018-07-12T17:21:47.285Z,30.70
2018-07-12T17:24:16.243Z,30.80
2018-07-12T17:26:44.908Z,31.30
2018-07-12T17:29:13.623Z,31.60
2018-07-12T17:31:42.285Z,31.70
2018-07-12T17:34:10.954Z,31.50
2018-07-12T17:36:39.608Z,30.80
2018-07-12T17:39:09.081Z,30.20
2018-07-12T17:41:37.825Z,29.20
2018-07-12T17:45:29.384Z,28.30
2018-07-12T17:47:58.077Z,27.60
2018-07-12T17:50:26.774Z,26.80
2018-07-12T17:52:55.438Z,26.40
2018-07-12T17:55:24.122Z,26.10
2018-07-12T17:57:52.780Z,26.00
2018-07-12T18:00:21.496Z,25.60
2018-07-12T18:02:50.729Z,25.40
2018-07-12T18:05:19.445Z,25.20
2018-07-12T18:07:48.105Z,25.10
2018-07-12T18:10:18.070Z,24.90
2018-07-12T18:12:47.234Z,24.60
2018-07-12T18:15:16.018Z,24.50
2018-07-12T18:17:44.758Z,24.40
2018-07-12T18:20:13.496Z,24.40
2018-07-12T18:22:43.030Z,24.30
2018-07-12T18:25:11.768Z,24.30
2018-07-12T18:27:40.392Z,24.20
2018-07-12T18:30:09.111Z,24.10
2018-07-12T18:35:06.553Z,23.90
2018-07-12T18:37:36.006Z,23.80
2018-07-12T18:40:04.875Z,23.70
2018-07-12T18:42:33.617Z,23.60
2018-07-12T18:45:02.329Z,23.50
2018-07-12T18:47:31.059Z,23.50
2018-07-12T18:49:59.831Z,23.40
2018-07-12T18:52:28.486Z,23.30
2018-07-12T18:54:57.176Z,23.20
2018-07-12T18:57:25.829Z,23.10
2018-07-12T18:59:57.269Z,22.90
2018-07-12T19:02:25.947Z,22.80
2018-07-12T19:04:54.686Z,22.70
2018-07-12T19:07:23.336Z,22.60
2018-07-12T19:09:52.080Z,22.50
2018-07-12T19:12:20.815Z,22.40
2018-07-12T19:14:49.515Z,22.30
2018-07-12T19:17:18.300Z,22.30
2018-07-12T19:19:46.998Z,22.20
2018-07-12T19:22:15.676Z,22.10
2018-07-12T19:24:44.338Z,22.00
2018-07-12T19:27:13.046Z,21.90
2018-07-12T19:29:41.706Z,21.80
2018-07-12T19:32:10.351Z,21.70
2018-07-12T19:34:39.111Z,21.60
2018-07-12T19:37:07.816Z,21.50
2018-07-12T19:39:36.545Z,21.40
2018-07-12T19:42:05.714Z,21.30
2018-07-12T19:44:34.374Z,21.20
2018-07-12T19:47:03.162Z,21.20
2018-07-12T19:49:31.914Z,21.20
2018-07-12T19:52:00.649Z,21.10
2018-07-12T19:54:29.578Z,21.10
2018-07-12T19:56:58.870Z,21.10
2018-07-12T19:59:27.593Z,21.10
2018-07-12T20:02:02.654Z,21.00
2018-07-12T20:04:31.481Z,20.90
2018-07-12T20:07:00.162Z,21.00
2018-07-12T20:09:28.833Z,20.90
2018-07-12T20:11:57.505Z,20.90
2018-07-12T20:14:26.148Z,20.90
2018-07-12T20:16:54.837Z,20.80
2018-07-12T20:19:23.480Z,20.80
2018-07-12T20:21:52.155Z,20.90
2018-07-12T20:24:20.836Z,20.90
2018-07-12T20:26:49.737Z,20.90
2018-07-12T20:29:18.445Z,20.80
2018-07-12T20:31:47.114Z,20.80
2018-07-12T20:34:15.805Z,20.80
2018-07-12T20:36:44.463Z,20.80
2018-07-12T20:39:13.252Z,20.70
2018-07-12T20:41:41.938Z,20.70
2018-07-12T20:44:10.592Z,20.70
2018-07-12T20:46:39.337Z,20.70
2018-07-12T20:49:08.051Z,20.70
2018-07-12T20:51:36.725Z,20.70
2018-07-12T20:54:05.380Z,20.60
2018-07-12T20:56:34.054Z,20.70
2018-07-12T20:59:02.977Z,20.70
2018-07-12T21:01:31.631Z,20.60
2018-07-12T21:04:00.352Z,20.70
2018-07-12T21:06:29.018Z,20.70
2018-07-12T21:08:57.737Z,20.60
2018-07-12T21:13:54.710Z,20.60
2018-07-12T21:16:23.396Z,20.50
2018-07-12T21:18:52.063Z,20.50
2018-07-12T21:21:20.720Z,20.50
2018-07-12T21:23:52.346Z,20.50
2018-07-12T21:26:21.045Z,20.40
2018-07-12T21:28:49.718Z,20.40
2018-07-12T21:31:18.429Z,20.30
2018-07-12T21:33:47.154Z,20.30
2018-07-12T21:36:15.841Z,20.40
2018-07-12T21:38:44.560Z,20.40
2018-07-12T21:41:13.239Z,20.30
2018-07-12T21:43:41.953Z,20.20
2018-07-12T21:46:10.637Z,20.20
2018-07-12T21:48:45.705Z,20.10
2018-07-12T21:51:14.413Z,20.10
2018-07-12T21:53:43.038Z,20.00
2018-07-12T21:56:11.684Z,19.90
2018-07-12T21:58:40.346Z,19.90
2018-07-12T22:01:09.092Z,19.80
2018-07-12T22:03:37.797Z,19.70
2018-07-12T22:06:06.469Z,19.70
2018-07-12T22:08:35.157Z,19.60
2018-07-12T22:11:05.003Z,19.60
2018-07-12T22:13:34.986Z,19.60
2018-07-12T22:16:03.653Z,19.50
2018-07-12T22:18:32.400Z,19.50
2018-07-12T22:21:01.092Z,19.50
2018-07-12T22:23:29.814Z,19.50
2018-07-12T22:25:58.517Z,19.50
2018-07-12T22:28:27.170Z,19.50
2018-07-12T22:30:55.853Z,19.50
2018-07-12T22:33:24.499Z,19.50
2018-07-12T22:35:53.141Z,19.50
2018-07-12T22:38:21.877Z,19.40
2018-07-12T22:40:50.514Z,19.30
2018-07-12T22:43:19.198Z,19.30
2018-07-12T22:45:47.870Z,19.30
2018-07-12T22:48:16.556Z,19.20
2018-07-12T22:50:45.217Z,19.20
2018-07-12T22:53:13.932Z,19.10
2018-07-12T22:55:42.573Z,19.10
2018-07-12T22:58:11.221Z,19.20
2018-07-12T23:00:39.925Z,19.10
2018-07-12T23:03:08.692Z,19.10
2018-07-12T23:05:37.381Z,19.10
2018-07-12T23:08:06.062Z,19.20
2018-07-12T23:10:34.751Z,19.10
2018-07-12T23:13:03.378Z,19.20
2018-07-12T23:15:32.094Z,19.10
2018-07-12T23:18:00.736Z,19.20
2018-07-12T23:20:29.393Z,19.10
2018-07-12T23:22:58.035Z,19.10
2018-07-12T23:25:26.758Z,19.10
2018-07-12T23:27:55.411Z,19.00
2018-07-12T23:30:24.113Z,19.00
2018-07-12T23:32:52.757Z,19.00
2018-07-12T23:35:21.442Z,19.00
2018-07-12T23:37:50.130Z,19.00
2018-07-12T23:40:18.824Z,19.00
2018-07-12T23:42:48.162Z,18.90
2018-07-12T23:45:16.949Z,18.90
2018-07-12T23:47:45.541Z,18.90
2018-07-12T23:50:14.194Z,18.80
2018-07-12T23:52:42.847Z,18.80
2018-07-12T23:55:11.508Z,18.80
2018-07-12T23:57:40.156Z,18.80
